MUHG

Frank Pais International Airport

Holguin, Cuba
MUHG 181700Z 1818/1918 09010KT 9000 SCT020 TEMPO 1818/1824 5000 RA BKN020 BECMG 1902/1904 VRB03KT BECMG 1913/1915 13007KT
Issued Valid From Valid To
Jan-18 @ 17:00 UTC
(3 hours ago)
Jan-18 @ 18:00 UTC
(2 hours ago)
Jan-19 @ 18:00 UTC
(in 22 hours)
Jan-18 @ 18:00 to Jan-19 @ 02:00
MUHG 181700Z 1818/1918 09010KT 9000 SCT020
Wind Visibility Clouds
90° at 10 knots 8,996 meters
  • Scattered at 2,000' AGL
Temporary Jan-18 @ 18:00 to Jan-19 @ 00:00
TEMPO 1818/1824 5000 RA BKN020
Visibility Clouds Conditions
5,005 meters
  • Broken at 2,000' AGL
  • Rain
Becoming Jan-19 @ 02:00 to Jan-19 @ 13:00
BECMG 1902/1904 VRB03KT
Wind Visibility Clouds
Variable at 3 knots 8,996 meters
  • Scattered at 2,000' AGL
Becoming Jan-19 @ 13:00 to Jan-19 @ 18:00
BECMG 1913/1915 13007KT
Wind Visibility Clouds
130° at 7 knots 8,996 meters
  • Scattered at 2,000' AGL
MUHG 181700Z 1818/1918 09010KT 9000 SCT020 TEMPO 1818/1824 5000 RA BKN020 BECMG 1902/1904 VRB03KT BECMG 1913/1915 13007KT
Issued Jan-18 @ 17:00 UTC
(3 hours ago)
Valid From Jan-18 @ 18:00 UTC
(2 hours ago)
Valid To Jan-19 @ 18:00 UTC
(in 22 hours)
Jan-18 @ 18:00 - Jan-19 @ 02:00
Wind Visibility
90° at 10 knots 8,996 meters
Clouds
  • Scattered at 2,000' AGL
Temporary Jan-18 @ 18:00 - Jan-19 @ 00:00
Clouds
  • Broken at 2,000' AGL
Conditions
  • Rain
Becoming Jan-19 @ 02:00 - Jan-19 @ 13:00
Wind Visibility
Variable at 3 knots 8,996 meters
Clouds
  • Scattered at 2,000' AGL
Becoming Jan-19 @ 13:00 - Jan-19 @ 18:00
Wind Visibility
130° at 7 knots 8,996 meters
Clouds
  • Scattered at 2,000' AGL